sensor_id;sensor_type;location;lat;lon;timestamp;P1;durP1;ratioP1;P2;durP2;ratioP2
4448;SDS011;2237;51.870;6.160;2023-04-15T00:01:48;4.93;;;2.92;;
4448;SDS011;2237;51.870;6.160;2023-04-15T00:04:14;5.38;;;2.58;;
4448;SDS011;2237;51.870;6.160;2023-04-15T00:06:41;5.20;;;2.90;;
4448;SDS011;2237;51.870;6.160;2023-04-15T00:09:07;7.60;;;2.70;;
4448;SDS011;2237;51.870;6.160;2023-04-15T00:11:34;3.85;;;2.58;;
4448;SDS011;2237;51.870;6.160;2023-04-15T00:14:00;4.85;;;2.53;;
4448;SDS011;2237;51.870;6.160;2023-04-15T00:16:27;6.00;;;2.67;;
4448;SDS011;2237;51.870;6.160;2023-04-15T00:18:53;4.40;;;2.42;;
4448;SDS011;2237;51.870;6.160;2023-04-15T00:21:19;4.72;;;2.30;;
4448;SDS011;2237;51.870;6.160;2023-04-15T00:23:46;6.95;;;3.00;;
4448;SDS011;2237;51.870;6.160;2023-04-15T00:26:17;9.88;;;3.17;;
4448;SDS011;2237;51.870;6.160;2023-04-15T00:28:44;4.30;;;2.45;;
4448;SDS011;2237;51.870;6.160;2023-04-15T00:31:11;8.80;;;2.90;;
4448;SDS011;2237;51.870;6.160;2023-04-15T00:33:37;8.50;;;2.80;;
4448;SDS011;2237;51.870;6.160;2023-04-15T00:36:05;9.00;;;2.70;;
4448;SDS011;2237;51.870;6.160;2023-04-15T00:38:32;4.47;;;2.58;;
4448;SDS011;2237;51.870;6.160;2023-04-15T00:40:58;8.48;;;3.80;;
4448;SDS011;2237;51.870;6.160;2023-04-15T00:43:25;7.93;;;2.97;;
4448;SDS011;2237;51.870;6.160;2023-04-15T00:45:52;5.72;;;2.95;;
4448;SDS011;2237;51.870;6.160;2023-04-15T00:48:19;6.68;;;2.80;;
4448;SDS011;2237;51.870;6.160;2023-04-15T00:50:46;9.27;;;3.50;;
4448;SDS011;2237;51.870;6.160;2023-04-15T00:53:12;5.03;;;2.88;;
4448;SDS011;2237;51.870;6.160;2023-04-15T00:55:39;4.10;;;2.45;;
4448;SDS011;2237;51.870;6.160;2023-04-15T00:58:05;6.47;;;2.60;;
4448;SDS011;2237;51.870;6.160;2023-04-15T01:00:32;5.68;;;2.70;;
4448;SDS011;2237;51.870;6.160;2023-04-15T01:02:59;5.03;;;2.70;;
4448;SDS011;2237;51.870;6.160;2023-04-15T01:05:26;7.13;;;2.60;;
4448;SDS011;2237;51.870;6.160;2023-04-15T01:07:53;5.55;;;2.70;;
4448;SDS011;2237;51.870;6.160;2023-04-15T01:10:20;5.18;;;2.42;;
4448;SDS011;2237;51.870;6.160;2023-04-15T01:12:47;9.52;;;3.20;;
4448;SDS011;2237;51.870;6.160;2023-04-15T01:15:13;5.40;;;2.70;;
4448;SDS011;2237;51.870;6.160;2023-04-15T01:17:41;7.25;;;3.17;;
4448;SDS011;2237;51.870;6.160;2023-04-15T01:20:07;6.90;;;2.80;;
4448;SDS011;2237;51.870;6.160;2023-04-15T01:22:37;7.70;;;2.97;;
4448;SDS011;2237;51.870;6.160;2023-04-15T01:25:05;6.47;;;2.83;;
4448;SDS011;2237;51.870;6.160;2023-04-15T01:27:39;6.18;;;2.75;;
4448;SDS011;2237;51.870;6.160;2023-04-15T01:30:07;5.57;;;2.88;;
4448;SDS011;2237;51.870;6.160;2023-04-15T01:32:34;8.48;;;3.05;;
4448;SDS011;2237;51.870;6.160;2023-04-15T01:35:01;5.57;;;2.85;;
4448;SDS011;2237;51.870;6.160;2023-04-15T01:37:28;5.78;;;2.80;;
4448;SDS011;2237;51.870;6.160;2023-04-15T01:39:55;4.88;;;3.00;;
4448;SDS011;2237;51.870;6.160;2023-04-15T01:42:23;5.80;;;3.13;;
4448;SDS011;2237;51.870;6.160;2023-04-15T01:44:49;5.38;;;3.38;;
4448;SDS011;2237;51.870;6.160;2023-04-15T01:47:16;6.88;;;2.95;;
4448;SDS011;2237;51.870;6.160;2023-04-15T01:49:42;7.68;;;3.22;;
4448;SDS011;2237;51.870;6.160;2023-04-15T01:52:09;5.88;;;3.17;;
4448;SDS011;2237;51.870;6.160;2023-04-15T01:54:35;4.55;;;2.90;;
4448;SDS011;2237;51.870;6.160;2023-04-15T01:57:01;5.97;;;3.17;;
4448;SDS011;2237;51.870;6.160;2023-04-15T01:59:29;8.43;;;3.75;;
4448;SDS011;2237;51.870;6.160;2023-04-15T02:01:56;6.97;;;2.83;;
4448;SDS011;2237;51.870;6.160;2023-04-15T02:04:23;4.95;;;2.83;;
4448;SDS011;2237;51.870;6.160;2023-04-15T02:06:49;7.07;;;3.72;;
4448;SDS011;2237;51.870;6.160;2023-04-15T02:09:16;9.32;;;3.63;;
4448;SDS011;2237;51.870;6.160;2023-04-15T02:11:42;5.60;;;3.17;;
4448;SDS011;2237;51.870;6.160;2023-04-15T02:14:09;6.15;;;3.35;;
4448;SDS011;2237;51.870;6.160;2023-04-15T02:16:35;5.70;;;3.45;;
4448;SDS011;2237;51.870;6.160;2023-04-15T02:19:02;5.38;;;3.17;;
4448;SDS011;2237;51.870;6.160;2023-04-15T02:21:29;7.50;;;3.20;;
4448;SDS011;2237;51.870;6.160;2023-04-15T02:23:55;8.52;;;3.50;;
4448;SDS011;2237;51.870;6.160;2023-04-15T02:26:22;8.70;;;3.33;;
4448;SDS011;2237;51.870;6.160;2023-04-15T02:28:50;7.28;;;3.80;;
4448;SDS011;2237;51.870;6.160;2023-04-15T02:31:17;6.80;;;3.10;;
4448;SDS011;2237;51.870;6.160;2023-04-15T02:33:43;6.53;;;3.28;;
4448;SDS011;2237;51.870;6.160;2023-04-15T02:36:10;4.40;;;2.85;;
4448;SDS011;2237;51.870;6.160;2023-04-15T02:38:37;9.65;;;3.60;;
4448;SDS011;2237;51.870;6.160;2023-04-15T02:41:05;6.82;;;3.67;;
4448;SDS011;2237;51.870;6.160;2023-04-15T02:43:32;7.13;;;3.92;;
4448;SDS011;2237;51.870;6.160;2023-04-15T02:45:58;5.75;;;3.30;;
4448;SDS011;2237;51.870;6.160;2023-04-15T02:48:25;8.45;;;3.65;;
4448;SDS011;2237;51.870;6.160;2023-04-15T02:50:52;6.43;;;3.35;;
4448;SDS011;2237;51.870;6.160;2023-04-15T02:53:18;5.75;;;3.28;;
4448;SDS011;2237;51.870;6.160;2023-04-15T02:55:45;6.50;;;3.67;;
4448;SDS011;2237;51.870;6.160;2023-04-15T02:58:11;8.73;;;3.97;;
4448;SDS011;2237;51.870;6.160;2023-04-15T03:00:37;7.90;;;4.10;;
4448;SDS011;2237;51.870;6.160;2023-04-15T03:03:04;9.18;;;4.00;;
4448;SDS011;2237;51.870;6.160;2023-04-15T03:05:31;8.55;;;4.00;;
4448;SDS011;2237;51.870;6.160;2023-04-15T03:07:58;8.77;;;4.10;;
4448;SDS011;2237;51.870;6.160;2023-04-15T03:10:26;9.60;;;3.97;;
4448;SDS011;2237;51.870;6.160;2023-04-15T03:12:52;7.65;;;4.22;;
4448;SDS011;2237;51.870;6.160;2023-04-15T03:15:19;8.18;;;4.00;;
4448;SDS011;2237;51.870;6.160;2023-04-15T03:17:46;6.10;;;3.50;;
4448;SDS011;2237;51.870;6.160;2023-04-15T03:20:14;6.93;;;3.80;;
4448;SDS011;2237;51.870;6.160;2023-04-15T03:22:41;8.77;;;3.65;;
4448;SDS011;2237;51.870;6.160;2023-04-15T03:25:07;8.05;;;3.85;;
4448;SDS011;2237;51.870;6.160;2023-04-15T03:27:34;6.93;;;3.97;;
4448;SDS011;2237;51.870;6.160;2023-04-15T03:30:00;6.47;;;3.88;;
4448;SDS011;2237;51.870;6.160;2023-04-15T03:32:27;12.07;;;3.90;;
4448;SDS011;2237;51.870;6.160;2023-04-15T03:34:53;5.97;;;3.55;;
4448;SDS011;2237;51.870;6.160;2023-04-15T03:37:20;8.30;;;3.75;;
4448;SDS011;2237;51.870;6.160;2023-04-15T03:39:46;7.28;;;3.67;;
4448;SDS011;2237;51.870;6.160;2023-04-15T03:42:13;6.57;;;3.50;;
4448;SDS011;2237;51.870;6.160;2023-04-15T03:44:39;6.93;;;3.72;;
4448;SDS011;2237;51.870;6.160;2023-04-15T03:47:05;7.53;;;4.25;;
4448;SDS011;2237;51.870;6.160;2023-04-15T03:49:32;6.50;;;3.97;;
4448;SDS011;2237;51.870;6.160;2023-04-15T03:51:58;6.10;;;3.67;;
4448;SDS011;2237;51.870;6.160;2023-04-15T03:54:25;6.97;;;3.88;;
4448;SDS011;2237;51.870;6.160;2023-04-15T03:56:51;9.25;;;4.13;;
4448;SDS011;2237;51.870;6.160;2023-04-15T03:59:18;6.32;;;3.97;;
4448;SDS011;2237;51.870;6.160;2023-04-15T04:01:44;11.35;;;4.40;;
4448;SDS011;2237;51.870;6.160;2023-04-15T04:04:11;11.15;;;4.25;;
4448;SDS011;2237;51.870;6.160;2023-04-15T04:06:37;7.72;;;4.13;;
4448;SDS011;2237;51.870;6.160;2023-04-15T04:09:04;8.05;;;3.72;;
4448;SDS011;2237;51.870;6.160;2023-04-15T04:11:30;8.57;;;4.75;;
4448;SDS011;2237;51.870;6.160;2023-04-15T04:13:58;8.13;;;4.00;;
4448;SDS011;2237;51.870;6.160;2023-04-15T04:16:24;8.90;;;4.72;;
4448;SDS011;2237;51.870;6.160;2023-04-15T04:18:51;7.60;;;4.07;;
4448;SDS011;2237;51.870;6.160;2023-04-15T04:21:17;7.88;;;4.20;;
4448;SDS011;2237;51.870;6.160;2023-04-15T04:23:44;10.68;;;4.72;;
4448;SDS011;2237;51.870;6.160;2023-04-15T04:26:11;6.65;;;4.22;;
4448;SDS011;2237;51.870;6.160;2023-04-15T04:28:37;7.75;;;4.28;;
4448;SDS011;2237;51.870;6.160;2023-04-15T04:31:07;11.15;;;4.93;;
4448;SDS011;2237;51.870;6.160;2023-04-15T04:33:33;7.50;;;4.40;;
4448;SDS011;2237;51.870;6.160;2023-04-15T04:35:59;10.45;;;4.65;;
4448;SDS011;2237;51.870;6.160;2023-04-15T04:38:26;8.52;;;4.57;;
4448;SDS011;2237;51.870;6.160;2023-04-15T04:40:52;11.20;;;4.80;;
4448;SDS011;2237;51.870;6.160;2023-04-15T04:43:19;8.25;;;4.43;;
4448;SDS011;2237;51.870;6.160;2023-04-15T04:45:45;9.15;;;5.20;;
4448;SDS011;2237;51.870;6.160;2023-04-15T04:48:12;9.38;;;4.53;;
4448;SDS011;2237;51.870;6.160;2023-04-15T04:50:38;11.23;;;5.13;;
4448;SDS011;2237;51.870;6.160;2023-04-15T04:53:05;10.13;;;4.75;;
4448;SDS011;2237;51.870;6.160;2023-04-15T04:55:31;11.38;;;5.05;;
4448;SDS011;2237;51.870;6.160;2023-04-15T04:57:58;10.48;;;4.78;;
4448;SDS011;2237;51.870;6.160;2023-04-15T05:00:24;10.85;;;4.50;;
4448;SDS011;2237;51.870;6.160;2023-04-15T05:02:50;8.27;;;4.68;;
4448;SDS011;2237;51.870;6.160;2023-04-15T05:05:17;11.10;;;4.93;;
4448;SDS011;2237;51.870;6.160;2023-04-15T05:07:43;12.50;;;5.22;;
4448;SDS011;2237;51.870;6.160;2023-04-15T05:10:10;9.10;;;5.15;;
4448;SDS011;2237;51.870;6.160;2023-04-15T05:12:36;10.13;;;5.38;;
4448;SDS011;2237;51.870;6.160;2023-04-15T05:15:04;10.07;;;5.13;;
4448;SDS011;2237;51.870;6.160;2023-04-15T05:17:31;13.25;;;5.38;;
4448;SDS011;2237;51.870;6.160;2023-04-15T05:20:00;10.48;;;4.70;;
4448;SDS011;2237;51.870;6.160;2023-04-15T05:22:27;12.13;;;5.32;;
4448;SDS011;2237;51.870;6.160;2023-04-15T05:24:54;11.65;;;5.30;;
4448;SDS011;2237;51.870;6.160;2023-04-15T05:27:21;13.73;;;5.15;;
4448;SDS011;2237;51.870;6.160;2023-04-15T05:29:49;9.75;;;4.97;;
4448;SDS011;2237;51.870;6.160;2023-04-15T05:32:15;11.07;;;5.25;;
4448;SDS011;2237;51.870;6.160;2023-04-15T05:34:42;9.80;;;5.50;;
4448;SDS011;2237;51.870;6.160;2023-04-15T05:37:08;10.95;;;4.53;;
4448;SDS011;2237;51.870;6.160;2023-04-15T05:39:35;13.02;;;5.32;;
4448;SDS011;2237;51.870;6.160;2023-04-15T05:42:01;11.00;;;5.63;;
4448;SDS011;2237;51.870;6.160;2023-04-15T05:44:28;11.50;;;5.78;;
4448;SDS011;2237;51.870;6.160;2023-04-15T05:46:55;8.23;;;4.90;;
4448;SDS011;2237;51.870;6.160;2023-04-15T05:49:22;11.23;;;4.95;;
4448;SDS011;2237;51.870;6.160;2023-04-15T05:51:48;12.27;;;6.00;;
4448;SDS011;2237;51.870;6.160;2023-04-15T05:54:15;10.30;;;5.25;;
4448;SDS011;2237;51.870;6.160;2023-04-15T05:56:45;9.82;;;5.25;;
4448;SDS011;2237;51.870;6.160;2023-04-15T05:59:11;9.45;;;5.32;;
4448;SDS011;2237;51.870;6.160;2023-04-15T06:01:38;10.27;;;4.95;;
4448;SDS011;2237;51.870;6.160;2023-04-15T06:04:05;9.50;;;5.07;;
4448;SDS011;2237;51.870;6.160;2023-04-15T06:06:31;10.50;;;4.80;;
4448;SDS011;2237;51.870;6.160;2023-04-15T06:08:58;10.15;;;5.43;;
4448;SDS011;2237;51.870;6.160;2023-04-15T06:11:25;12.20;;;5.22;;
4448;SDS011;2237;51.870;6.160;2023-04-15T06:13:52;9.10;;;5.28;;
4448;SDS011;2237;51.870;6.160;2023-04-15T06:16:18;11.68;;;5.90;;
4448;SDS011;2237;51.870;6.160;2023-04-15T06:18:45;13.88;;;5.78;;
4448;SDS011;2237;51.870;6.160;2023-04-15T06:21:11;10.73;;;5.30;;
4448;SDS011;2237;51.870;6.160;2023-04-15T06:23:38;11.18;;;5.82;;
4448;SDS011;2237;51.870;6.160;2023-04-15T06:26:06;12.23;;;5.50;;
4448;SDS011;2237;51.870;6.160;2023-04-15T06:28:33;13.13;;;5.90;;
4448;SDS011;2237;51.870;6.160;2023-04-15T06:30:59;10.95;;;5.82;;
4448;SDS011;2237;51.870;6.160;2023-04-15T06:33:27;11.63;;;5.82;;
4448;SDS011;2237;51.870;6.160;2023-04-15T06:35:53;10.60;;;5.88;;
4448;SDS011;2237;51.870;6.160;2023-04-15T06:38:20;10.15;;;5.78;;
4448;SDS011;2237;51.870;6.160;2023-04-15T06:40:46;11.40;;;5.78;;
4448;SDS011;2237;51.870;6.160;2023-04-15T06:43:12;16.42;;;5.55;;
4448;SDS011;2237;51.870;6.160;2023-04-15T06:45:39;9.88;;;4.97;;
4448;SDS011;2237;51.870;6.160;2023-04-15T06:48:05;10.50;;;4.47;;
4448;SDS011;2237;51.870;6.160;2023-04-15T06:50:32;10.25;;;5.03;;
4448;SDS011;2237;51.870;6.160;2023-04-15T06:52:58;10.98;;;5.25;;
4448;SDS011;2237;51.870;6.160;2023-04-15T06:55:25;10.77;;;4.85;;
4448;SDS011;2237;51.870;6.160;2023-04-15T06:57:52;10.07;;;4.57;;
4448;SDS011;2237;51.870;6.160;2023-04-15T07:00:18;10.88;;;4.70;;
4448;SDS011;2237;51.870;6.160;2023-04-15T07:02:45;7.20;;;4.10;;
4448;SDS011;2237;51.870;6.160;2023-04-15T07:05:12;11.18;;;5.32;;
4448;SDS011;2237;51.870;6.160;2023-04-15T07:07:38;8.27;;;4.70;;
4448;SDS011;2237;51.870;6.160;2023-04-15T07:10:07;8.48;;;4.13;;
4448;SDS011;2237;51.870;6.160;2023-04-15T07:12:44;8.07;;;4.32;;
4448;SDS011;2237;51.870;6.160;2023-04-15T07:15:11;7.93;;;4.18;;
4448;SDS011;2237;51.870;6.160;2023-04-15T07:17:37;9.85;;;4.28;;
4448;SDS011;2237;51.870;6.160;2023-04-15T07:20:04;8.48;;;4.22;;
4448;SDS011;2237;51.870;6.160;2023-04-15T07:22:31;10.75;;;4.90;;
4448;SDS011;2237;51.870;6.160;2023-04-15T07:24:58;11.20;;;5.00;;
4448;SDS011;2237;51.870;6.160;2023-04-15T07:27:33;10.93;;;4.38;;
4448;SDS011;2237;51.870;6.160;2023-04-15T07:30:04;9.18;;;4.28;;
4448;SDS011;2237;51.870;6.160;2023-04-15T07:32:31;9.70;;;4.13;;
4448;SDS011;2237;51.870;6.160;2023-04-15T07:34:58;7.05;;;3.90;;
4448;SDS011;2237;51.870;6.160;2023-04-15T07:37:24;10.13;;;4.07;;
4448;SDS011;2237;51.870;6.160;2023-04-15T07:39:50;10.68;;;4.30;;
4448;SDS011;2237;51.870;6.160;2023-04-15T07:42:18;8.18;;;4.07;;
4448;SDS011;2237;51.870;6.160;2023-04-15T07:44:44;6.88;;;4.05;;
4448;SDS011;2237;51.870;6.160;2023-04-15T07:47:11;7.63;;;3.35;;
4448;SDS011;2237;51.870;6.160;2023-04-15T07:49:37;8.88;;;3.70;;
4448;SDS011;2237;51.870;6.160;2023-04-15T07:52:03;9.43;;;4.35;;
4448;SDS011;2237;51.870;6.160;2023-04-15T07:54:30;6.50;;;3.67;;
4448;SDS011;2237;51.870;6.160;2023-04-15T07:56:57;9.35;;;3.97;;
4448;SDS011;2237;51.870;6.160;2023-04-15T07:59:24;8.82;;;3.80;;
4448;SDS011;2237;51.870;6.160;2023-04-15T08:01:50;7.20;;;3.40;;
4448;SDS011;2237;51.870;6.160;2023-04-15T08:04:16;5.10;;;2.72;;
4448;SDS011;2237;51.870;6.160;2023-04-15T08:06:43;5.47;;;2.72;;
4448;SDS011;2237;51.870;6.160;2023-04-15T08:09:09;5.75;;;3.15;;
4448;SDS011;2237;51.870;6.160;2023-04-15T08:11:36;6.18;;;3.05;;
4448;SDS011;2237;51.870;6.160;2023-04-15T08:14:03;6.18;;;3.00;;
4448;SDS011;2237;51.870;6.160;2023-04-15T08:16:29;6.47;;;3.08;;
4448;SDS011;2237;51.870;6.160;2023-04-15T08:18:56;5.53;;;2.70;;
4448;SDS011;2237;51.870;6.160;2023-04-15T08:21:23;6.68;;;2.80;;
4448;SDS011;2237;51.870;6.160;2023-04-15T08:23:50;7.80;;;3.40;;
4448;SDS011;2237;51.870;6.160;2023-04-15T08:26:18;6.78;;;3.58;;
4448;SDS011;2237;51.870;6.160;2023-04-15T08:28:45;5.10;;;2.45;;
4448;SDS011;2237;51.870;6.160;2023-04-15T08:31:15;4.68;;;2.40;;
4448;SDS011;2237;51.870;6.160;2023-04-15T08:33:43;4.88;;;2.80;;
4448;SDS011;2237;51.870;6.160;2023-04-15T08:36:09;4.45;;;2.25;;
4448;SDS011;2237;51.870;6.160;2023-04-15T08:38:36;5.60;;;3.03;;
4448;SDS011;2237;51.870;6.160;2023-04-15T08:41:03;4.60;;;2.50;;
4448;SDS011;2237;51.870;6.160;2023-04-15T08:44:24;4.35;;;2.30;;
4448;SDS011;2237;51.870;6.160;2023-04-15T08:46:31;9.43;;;3.00;;
4448;SDS011;2237;51.870;6.160;2023-04-15T08:49:04;6.85;;;2.45;;
4448;SDS011;2237;51.870;6.160;2023-04-15T08:51:41;5.05;;;2.42;;
4448;SDS011;2237;51.870;6.160;2023-04-15T08:54:08;7.72;;;3.08;;
4448;SDS011;2237;51.870;6.160;2023-04-15T08:56:35;5.60;;;2.75;;
4448;SDS011;2237;51.870;6.160;2023-04-15T08:59:02;5.13;;;2.65;;
4448;SDS011;2237;51.870;6.160;2023-04-15T09:01:29;5.35;;;2.20;;
4448;SDS011;2237;51.870;6.160;2023-04-15T09:03:57;5.93;;;1.90;;
4448;SDS011;2237;51.870;6.160;2023-04-15T09:06:24;2.65;;;1.58;;
4448;SDS011;2237;51.870;6.160;2023-04-15T09:08:51;3.00;;;1.58;;
4448;SDS011;2237;51.870;6.160;2023-04-15T09:11:18;3.75;;;1.80;;
4448;SDS011;2237;51.870;6.160;2023-04-15T09:13:47;3.20;;;1.63;;
4448;SDS011;2237;51.870;6.160;2023-04-15T09:16:14;4.60;;;1.75;;
4448;SDS011;2237;51.870;6.160;2023-04-15T09:18:41;3.70;;;1.63;;
4448;SDS011;2237;51.870;6.160;2023-04-15T09:21:08;3.03;;;1.60;;
4448;SDS011;2237;51.870;6.160;2023-04-15T09:23:41;3.47;;;1.88;;
4448;SDS011;2237;51.870;6.160;2023-04-15T09:26:29;3.97;;;1.70;;
4448;SDS011;2237;51.870;6.160;2023-04-15T09:29:03;3.47;;;1.80;;
4448;SDS011;2237;51.870;6.160;2023-04-15T09:31:34;4.85;;;1.77;;
4448;SDS011;2237;51.870;6.160;2023-04-15T09:34:02;3.30;;;1.60;;
4448;SDS011;2237;51.870;6.160;2023-04-15T09:36:28;4.30;;;2.33;;
4448;SDS011;2237;51.870;6.160;2023-04-15T09:39:01;3.22;;;1.58;;
4448;SDS011;2237;51.870;6.160;2023-04-15T09:41:28;3.17;;;1.67;;
4448;SDS011;2237;51.870;6.160;2023-04-15T09:43:54;2.40;;;1.40;;
4448;SDS011;2237;51.870;6.160;2023-04-15T09:46:39;3.88;;;1.92;;
4448;SDS011;2237;51.870;6.160;2023-04-15T09:49:10;4.65;;;1.92;;
4448;SDS011;2237;51.870;6.160;2023-04-15T09:51:38;4.25;;;2.00;;
4448;SDS011;2237;51.870;6.160;2023-04-15T09:54:04;3.50;;;2.20;;
4448;SDS011;2237;51.870;6.160;2023-04-15T09:56:31;4.22;;;1.92;;
4448;SDS011;2237;51.870;6.160;2023-04-15T09:59:00;3.85;;;1.65;;
4448;SDS011;2237;51.870;6.160;2023-04-15T10:01:26;5.03;;;1.88;;
4448;SDS011;2237;51.870;6.160;2023-04-15T10:03:53;4.35;;;2.50;;
4448;SDS011;2237;51.870;6.160;2023-04-15T10:06:21;5.30;;;2.28;;
4448;SDS011;2237;51.870;6.160;2023-04-15T10:08:51;4.13;;;1.95;;
4448;SDS011;2237;51.870;6.160;2023-04-15T10:11:19;2.95;;;1.58;;
4448;SDS011;2237;51.870;6.160;2023-04-15T10:13:48;3.75;;;1.85;;
4448;SDS011;2237;51.870;6.160;2023-04-15T10:16:18;5.03;;;1.52;;
4448;SDS011;2237;51.870;6.160;2023-04-15T10:18:46;4.38;;;2.10;;
4448;SDS011;2237;51.870;6.160;2023-04-15T10:21:16;4.85;;;2.10;;
4448;SDS011;2237;51.870;6.160;2023-04-15T10:23:44;3.47;;;1.60;;
4448;SDS011;2237;51.870;6.160;2023-04-15T10:26:11;3.42;;;1.60;;
4448;SDS011;2237;51.870;6.160;2023-04-15T10:28:40;3.60;;;2.00;;
4448;SDS011;2237;51.870;6.160;2023-04-15T10:31:06;4.25;;;2.30;;
4448;SDS011;2237;51.870;6.160;2023-04-15T10:33:33;2.92;;;1.70;;
4448;SDS011;2237;51.870;6.160;2023-04-15T10:36:01;3.00;;;1.70;;
4448;SDS011;2237;51.870;6.160;2023-04-15T10:41:15;2.75;;;1.48;;
4448;SDS011;2237;51.870;6.160;2023-04-15T10:46:26;3.45;;;1.40;;
4448;SDS011;2237;51.870;6.160;2023-04-15T10:49:10;3.35;;;1.60;;
4448;SDS011;2237;51.870;6.160;2023-04-15T10:51:37;3.00;;;1.60;;
4448;SDS011;2237;51.870;6.160;2023-04-15T10:54:31;3.45;;;1.67;;
4448;SDS011;2237;51.870;6.160;2023-04-15T10:59:32;3.25;;;1.83;;
4448;SDS011;2237;51.870;6.160;2023-04-15T11:02:03;4.15;;;1.70;;
4448;SDS011;2237;51.870;6.160;2023-04-15T11:07:32;3.15;;;1.40;;
4448;SDS011;2237;51.870;6.160;2023-04-15T11:12:46;1.80;;;1.00;;
4448;SDS011;2237;51.870;6.160;2023-04-15T11:15:23;3.08;;;1.55;;
4448;SDS011;2237;51.870;6.160;2023-04-15T11:18:21;3.92;;;1.42;;
4448;SDS011;2237;51.870;6.160;2023-04-15T11:20:54;3.40;;;1.55;;
4448;SDS011;2237;51.870;6.160;2023-04-15T11:23:32;4.90;;;1.50;;
4448;SDS011;2237;51.870;6.160;2023-04-15T11:26:08;3.08;;;1.35;;
4448;SDS011;2237;51.870;6.160;2023-04-15T11:28:41;2.58;;;1.40;;
4448;SDS011;2237;51.870;6.160;2023-04-15T11:31:11;2.88;;;1.50;;
4448;SDS011;2237;51.870;6.160;2023-04-15T11:33:43;2.47;;;1.20;;
4448;SDS011;2237;51.870;6.160;2023-04-15T11:36:28;2.42;;;1.25;;
4448;SDS011;2237;51.870;6.160;2023-04-15T11:38:58;3.15;;;1.60;;
4448;SDS011;2237;51.870;6.160;2023-04-15T11:41:24;3.00;;;1.45;;
4448;SDS011;2237;51.870;6.160;2023-04-15T11:43:51;2.45;;;1.48;;
4448;SDS011;2237;51.870;6.160;2023-04-15T11:46:18;3.25;;;1.83;;
4448;SDS011;2237;51.870;6.160;2023-04-15T11:48:45;2.97;;;1.30;;
4448;SDS011;2237;51.870;6.160;2023-04-15T11:51:12;2.08;;;0.98;;
4448;SDS011;2237;51.870;6.160;2023-04-15T11:56:16;3.05;;;1.30;;
4448;SDS011;2237;51.870;6.160;2023-04-15T11:58:43;2.80;;;1.23;;
4448;SDS011;2237;51.870;6.160;2023-04-15T12:01:11;2.55;;;0.85;;
4448;SDS011;2237;51.870;6.160;2023-04-15T12:11:25;2.15;;;1.10;;
4448;SDS011;2237;51.870;6.160;2023-04-15T12:13:53;4.10;;;1.20;;
4448;SDS011;2237;51.870;6.160;2023-04-15T12:16:22;2.75;;;1.10;;
4448;SDS011;2237;51.870;6.160;2023-04-15T12:18:50;3.08;;;1.40;;
4448;SDS011;2237;51.870;6.160;2023-04-15T12:21:18;4.22;;;0.80;;
4448;SDS011;2237;51.870;6.160;2023-04-15T12:26:16;2.10;;;1.10;;
4448;SDS011;2237;51.870;6.160;2023-04-15T12:28:43;1.08;;;0.65;;
4448;SDS011;2237;51.870;6.160;2023-04-15T12:31:10;2.00;;;1.30;;
4448;SDS011;2237;51.870;6.160;2023-04-15T12:33:38;3.53;;;1.42;;
4448;SDS011;2237;51.870;6.160;2023-04-15T12:36:05;2.58;;;1.10;;
4448;SDS011;2237;51.870;6.160;2023-04-15T12:38:32;2.50;;;1.00;;
4448;SDS011;2237;51.870;6.160;2023-04-15T12:40:59;1.67;;;1.10;;
4448;SDS011;2237;51.870;6.160;2023-04-15T12:43:25;2.97;;;0.80;;
4448;SDS011;2237;51.870;6.160;2023-04-15T12:45:52;1.90;;;0.98;;
4448;SDS011;2237;51.870;6.160;2023-04-15T12:48:18;3.17;;;1.52;;
4448;SDS011;2237;51.870;6.160;2023-04-15T12:50:45;4.03;;;1.20;;
4448;SDS011;2237;51.870;6.160;2023-04-15T12:53:11;2.13;;;1.10;;
4448;SDS011;2237;51.870;6.160;2023-04-15T12:55:38;4.30;;;1.10;;
4448;SDS011;2237;51.870;6.160;2023-04-15T12:58:04;1.00;;;0.90;;
4448;SDS011;2237;51.870;6.160;2023-04-15T13:00:32;4.25;;;1.02;;
4448;SDS011;2237;51.870;6.160;2023-04-15T13:02:59;1.60;;;0.80;;
4448;SDS011;2237;51.870;6.160;2023-04-15T13:05:26;1.83;;;0.73;;
4448;SDS011;2237;51.870;6.160;2023-04-15T13:07:52;1.92;;;0.93;;
4448;SDS011;2237;51.870;6.160;2023-04-15T13:10:19;1.38;;;0.80;;
4448;SDS011;2237;51.870;6.160;2023-04-15T13:12:45;3.88;;;1.27;;
4448;SDS011;2237;51.870;6.160;2023-04-15T13:15:13;2.80;;;1.00;;
4448;SDS011;2237;51.870;6.160;2023-04-15T13:17:39;3.25;;;0.90;;
4448;SDS011;2237;51.870;6.160;2023-04-15T13:20:05;2.00;;;0.88;;
4448;SDS011;2237;51.870;6.160;2023-04-15T13:22:32;1.55;;;0.80;;
4448;SDS011;2237;51.870;6.160;2023-04-15T13:24:58;2.17;;;1.08;;
4448;SDS011;2237;51.870;6.160;2023-04-15T13:27:25;1.95;;;1.00;;
4448;SDS011;2237;51.870;6.160;2023-04-15T13:29:51;2.38;;;1.10;;
4448;SDS011;2237;51.870;6.160;2023-04-15T13:32:19;1.50;;;0.95;;
4448;SDS011;2237;51.870;6.160;2023-04-15T13:34:46;1.67;;;0.88;;
4448;SDS011;2237;51.870;6.160;2023-04-15T13:37:12;1.45;;;0.70;;
4448;SDS011;2237;51.870;6.160;2023-04-15T13:39:38;6.60;;;0.90;;
4448;SDS011;2237;51.870;6.160;2023-04-15T13:42:05;1.48;;;0.50;;
4448;SDS011;2237;51.870;6.160;2023-04-15T13:44:31;1.55;;;0.50;;
4448;SDS011;2237;51.870;6.160;2023-04-15T13:46:57;0.85;;;0.52;;
4448;SDS011;2237;51.870;6.160;2023-04-15T13:49:24;1.15;;;0.60;;
4448;SDS011;2237;51.870;6.160;2023-04-15T13:51:50;1.17;;;0.50;;
4448;SDS011;2237;51.870;6.160;2023-04-15T13:54:17;0.98;;;0.40;;
4448;SDS011;2237;51.870;6.160;2023-04-15T13:56:43;1.20;;;0.40;;
4448;SDS011;2237;51.870;6.160;2023-04-15T13:59:09;1.75;;;0.60;;
4448;SDS011;2237;51.870;6.160;2023-04-15T14:01:36;0.75;;;0.40;;
4448;SDS011;2237;51.870;6.160;2023-04-15T14:04:03;1.42;;;0.60;;
4448;SDS011;2237;51.870;6.160;2023-04-15T14:06:29;1.63;;;0.50;;
4448;SDS011;2237;51.870;6.160;2023-04-15T14:08:57;2.90;;;0.80;;
4448;SDS011;2237;51.870;6.160;2023-04-15T14:11:23;2.85;;;0.82;;
4448;SDS011;2237;51.870;6.160;2023-04-15T14:13:49;2.13;;;0.50;;
4448;SDS011;2237;51.870;6.160;2023-04-15T14:16:16;2.15;;;0.80;;
4448;SDS011;2237;51.870;6.160;2023-04-15T14:18:43;1.95;;;0.68;;
4448;SDS011;2237;51.870;6.160;2023-04-15T14:21:09;1.55;;;0.70;;
4448;SDS011;2237;51.870;6.160;2023-04-15T14:23:36;0.60;;;0.40;;
4448;SDS011;2237;51.870;6.160;2023-04-15T14:26:02;1.73;;;0.65;;
4448;SDS011;2237;51.870;6.160;2023-04-15T14:28:29;2.03;;;0.80;;
4448;SDS011;2237;51.870;6.160;2023-04-15T14:30:56;0.82;;;0.40;;
4448;SDS011;2237;51.870;6.160;2023-04-15T14:33:22;1.98;;;0.70;;
4448;SDS011;2237;51.870;6.160;2023-04-15T14:35:49;1.95;;;1.08;;
4448;SDS011;2237;51.870;6.160;2023-04-15T14:38:16;2.42;;;1.00;;
4448;SDS011;2237;51.870;6.160;2023-04-15T14:40:42;1.52;;;0.70;;
4448;SDS011;2237;51.870;6.160;2023-04-15T14:43:09;4.03;;;1.17;;
4448;SDS011;2237;51.870;6.160;2023-04-15T14:45:36;2.92;;;0.80;;
4448;SDS011;2237;51.870;6.160;2023-04-15T14:48:07;2.15;;;0.50;;
4448;SDS011;2237;51.870;6.160;2023-04-15T14:50:35;1.27;;;0.52;;
4448;SDS011;2237;51.870;6.160;2023-04-15T14:53:01;1.90;;;0.63;;
4448;SDS011;2237;51.870;6.160;2023-04-15T14:55:27;2.25;;;0.90;;
4448;SDS011;2237;51.870;6.160;2023-04-15T14:57:54;1.08;;;0.50;;
4448;SDS011;2237;51.870;6.160;2023-04-15T15:00:20;3.38;;;0.60;;
4448;SDS011;2237;51.870;6.160;2023-04-15T15:02:47;3.67;;;1.20;;
4448;SDS011;2237;51.870;6.160;2023-04-15T15:05:13;4.40;;;0.98;;
4448;SDS011;2237;51.870;6.160;2023-04-15T15:07:41;2.05;;;0.70;;
4448;SDS011;2237;51.870;6.160;2023-04-15T15:10:07;2.88;;;1.10;;
4448;SDS011;2237;51.870;6.160;2023-04-15T15:12:34;2.45;;;1.00;;
4448;SDS011;2237;51.870;6.160;2023-04-15T15:15:01;7.60;;;2.33;;
4448;SDS011;2237;51.870;6.160;2023-04-15T15:17:41;1.45;;;0.60;;
4448;SDS011;2237;51.870;6.160;2023-04-15T15:20:07;2.63;;;1.30;;
4448;SDS011;2237;51.870;6.160;2023-04-15T15:22:34;1.30;;;0.70;;
4448;SDS011;2237;51.870;6.160;2023-04-15T15:25:00;2.35;;;1.08;;
4448;SDS011;2237;51.870;6.160;2023-04-15T15:27:27;2.75;;;0.85;;
4448;SDS011;2237;51.870;6.160;2023-04-15T15:29:54;4.75;;;1.10;;
4448;SDS011;2237;51.870;6.160;2023-04-15T15:32:21;2.67;;;1.10;;
4448;SDS011;2237;51.870;6.160;2023-04-15T15:34:48;6.78;;;1.30;;
4448;SDS011;2237;51.870;6.160;2023-04-15T15:37:14;3.05;;;1.30;;
4448;SDS011;2237;51.870;6.160;2023-04-15T15:39:41;4.35;;;1.60;;
4448;SDS011;2237;51.870;6.160;2023-04-15T15:42:07;4.70;;;1.17;;